sensor_id;sensor_type;location;lat;lon;timestamp;temperature;humidity
70151;DHT22;57517;43.562;19.540;2024-03-23T00:53:45;205.10;1843.20
70151;DHT22;57517;43.562;19.540;2024-03-23T00:56:11;205.20;1843.20
70151;DHT22;57517;43.562;19.540;2024-03-23T00:58:36;205.20;1817.60
70151;DHT22;57517;43.562;19.540;2024-03-23T01:01:02;205.20;1817.60
70151;DHT22;57517;43.562;19.540;2024-03-23T01:03:29;205.30;1817.60
70151;DHT22;57517;43.562;19.540;2024-03-23T01:05:59;205.20;1817.60
70151;DHT22;57517;43.562;19.540;2024-03-23T01:08:25;205.20;1843.20
70151;DHT22;57517;43.562;19.540;2024-03-23T01:10:58;180.00;1920.00
70151;DHT22;57517;43.562;19.540;2024-03-23T01:13:24;180.00;1920.00
70151;DHT22;57517;43.562;19.540;2024-03-23T01:15:51;180.10;1920.00
70151;DHT22;57517;43.562;19.540;2024-03-23T01:18:17;179.90;1920.00
70151;DHT22;57517;43.562;19.540;2024-03-23T01:20:43;179.70;1920.00
70151;DHT22;57517;43.562;19.540;2024-03-23T01:23:10;179.80;1894.40
70151;DHT22;57517;43.562;19.540;2024-03-23T01:25:36;179.80;1920.00
70151;DHT22;57517;43.562;19.540;2024-03-23T01:28:02;179.80;1894.40
70151;DHT22;57517;43.562;19.540;2024-03-23T01:30:28;180.00;1868.80
70151;DHT22;57517;43.562;19.540;2024-03-23T01:32:54;204.80;1868.80
70151;DHT22;57517;43.562;19.540;2024-03-23T01:35:19;180.00;1868.80
70151;DHT22;57517;43.562;19.540;2024-03-23T01:37:45;180.10;1868.80
70151;DHT22;57517;43.562;19.540;2024-03-23T01:40:11;180.10;1868.80
70151;DHT22;57517;43.562;19.540;2024-03-23T01:42:39;204.90;1843.20
70151;DHT22;57517;43.562;19.540;2024-03-23T01:45:09;205.10;1843.20
70151;DHT22;57517;43.562;19.540;2024-03-23T01:47:37;205.00;1868.80
70151;DHT22;57517;43.562;19.540;2024-03-23T01:50:04;204.90;1843.20
70151;DHT22;57517;43.562;19.540;2024-03-23T01:52:30;204.90;1868.80
70151;DHT22;57517;43.562;19.540;2024-03-23T01:54:56;204.90;1868.80
70151;DHT22;57517;43.562;19.540;2024-03-23T01:57:22;205.00;1817.60
70151;DHT22;57517;43.562;19.540;2024-03-23T01:59:48;205.20;1792.00
70151;DHT22;57517;43.562;19.540;2024-03-23T02:02:14;204.90;1817.60
70151;DHT22;57517;43.562;19.540;2024-03-23T02:04:40;180.10;1843.20
70151;DHT22;57517;43.562;19.540;2024-03-23T02:07:06;179.80;1894.40
70151;DHT22;57517;43.562;19.540;2024-03-23T02:09:33;179.80;1920.00
70151;DHT22;57517;43.562;19.540;2024-03-23T02:11:59;179.80;1868.80
70151;DHT22;57517;43.562;19.540;2024-03-23T02:14:27;179.70;1894.40
70151;DHT22;57517;43.562;19.540;2024-03-23T02:16:53;179.70;1868.80
70151;DHT22;57517;43.562;19.540;2024-03-23T02:19:18;179.50;1894.40
70151;DHT22;57517;43.562;19.540;2024-03-23T02:21:44;179.40;1945.60
70151;DHT22;57517;43.562;19.540;2024-03-23T02:24:10;179.40;1971.20
70151;DHT22;57517;43.562;19.540;2024-03-23T02:26:36;179.40;1971.20
70151;DHT22;57517;43.562;19.540;2024-03-23T02:29:01;179.60;1945.60
70151;DHT22;57517;43.562;19.540;2024-03-23T02:31:27;179.70;1945.60
70151;DHT22;57517;43.562;19.540;2024-03-23T02:33:53;179.90;1920.00
70151;DHT22;57517;43.562;19.540;2024-03-23T02:36:19;179.60;1920.00
70151;DHT22;57517;43.562;19.540;2024-03-23T02:38:46;179.60;1920.00
70151;DHT22;57517;43.562;19.540;2024-03-23T02:41:12;179.60;1920.00
70151;DHT22;57517;43.562;19.540;2024-03-23T02:43:39;179.50;1945.60
70151;DHT22;57517;43.562;19.540;2024-03-23T02:46:05;179.40;1945.60
70151;DHT22;57517;43.562;19.540;2024-03-23T02:48:30;179.60;1945.60
70151;DHT22;57517;43.562;19.540;2024-03-23T02:50:56;179.20;1996.80
70151;DHT22;57517;43.562;19.540;2024-03-23T02:53:22;179.30;1971.20
70151;DHT22;57517;43.562;19.540;2024-03-23T02:55:48;154.50;2022.40
70151;DHT22;57517;43.562;19.540;2024-03-23T02:58:14;154.30;1996.80
70151;DHT22;57517;43.562;19.540;2024-03-23T03:00:40;154.30;2022.40
70151;DHT22;57517;43.562;19.540;2024-03-23T03:03:06;179.20;2048.00
70151;DHT22;57517;43.562;19.540;2024-03-23T03:05:32;179.20;2048.00
70151;DHT22;57517;43.562;19.540;2024-03-23T03:07:58;179.30;2022.40
70151;DHT22;57517;43.562;19.540;2024-03-23T03:10:24;179.40;2022.40
70151;DHT22;57517;43.562;19.540;2024-03-23T03:12:50;179.30;1996.80
70151;DHT22;57517;43.562;19.540;2024-03-23T03:15:15;179.20;1996.80
70151;DHT22;57517;43.562;19.540;2024-03-23T03:17:41;179.20;1996.80
70151;DHT22;57517;43.562;19.540;2024-03-23T03:20:07;154.50;1996.80
70151;DHT22;57517;43.562;19.540;2024-03-23T03:22:38;154.40;2022.40
70151;DHT22;57517;43.562;19.540;2024-03-23T03:25:05;179.20;2022.40
70151;DHT22;57517;43.562;19.540;2024-03-23T03:27:33;179.40;1996.80
70151;DHT22;57517;43.562;19.540;2024-03-23T03:29:59;179.20;1971.20
70151;DHT22;57517;43.562;19.540;2024-03-23T03:32:31;179.40;1971.20
70151;DHT22;57517;43.562;19.540;2024-03-23T03:34:57;179.50;1945.60
70151;DHT22;57517;43.562;19.540;2024-03-23T03:37:23;179.30;1971.20
70151;DHT22;57517;43.562;19.540;2024-03-23T03:39:49;179.30;1996.80
70151;DHT22;57517;43.562;19.540;2024-03-23T03:42:15;179.20;2022.40
70151;DHT22;57517;43.562;19.540;2024-03-23T03:44:41;154.50;1996.80
70151;DHT22;57517;43.562;19.540;2024-03-23T03:47:07;179.40;1971.20
70151;DHT22;57517;43.562;19.540;2024-03-23T03:49:33;179.30;1971.20
70151;DHT22;57517;43.562;19.540;2024-03-23T03:51:58;154.20;1996.80
70151;DHT22;57517;43.562;19.540;2024-03-23T03:54:26;153.90;2099.20
70151;DHT22;57517;43.562;19.540;2024-03-23T03:56:52;153.90;2099.20
70151;DHT22;57517;43.562;19.540;2024-03-23T03:59:18;153.80;2099.20
70151;DHT22;57517;43.562;19.540;2024-03-23T04:01:45;153.90;2073.60
70151;DHT22;57517;43.562;19.540;2024-03-23T04:04:11;154.00;2073.60
70151;DHT22;57517;43.562;19.540;2024-03-23T04:06:37;153.90;2099.20
70151;DHT22;57517;43.562;19.540;2024-03-23T04:09:03;154.00;2048.00
70151;DHT22;57517;43.562;19.540;2024-03-23T04:11:29;154.00;2048.00
70151;DHT22;57517;43.562;19.540;2024-03-23T04:13:54;154.10;2022.40
70151;DHT22;57517;43.562;19.540;2024-03-23T04:16:28;154.30;1996.80
70151;DHT22;57517;43.562;19.540;2024-03-23T04:18:54;154.50;1971.20
70151;DHT22;57517;43.562;19.540;2024-03-23T04:21:21;154.50;1945.60
70151;DHT22;57517;43.562;19.540;2024-03-23T04:23:47;154.40;1971.20
70151;DHT22;57517;43.562;19.540;2024-03-23T04:26:13;154.40;1971.20
70151;DHT22;57517;43.562;19.540;2024-03-23T04:28:38;179.20;1920.00
70151;DHT22;57517;43.562;19.540;2024-03-23T04:31:04;179.30;1894.40
70151;DHT22;57517;43.562;19.540;2024-03-23T04:33:31;179.50;1894.40
70151;DHT22;57517;43.562;19.540;2024-03-23T04:35:56;179.50;1920.00
70151;DHT22;57517;43.562;19.540;2024-03-23T04:38:22;154.50;1971.20
70151;DHT22;57517;43.562;19.540;2024-03-23T04:40:58;154.50;1971.20
70151;DHT22;57517;43.562;19.540;2024-03-23T04:43:24;154.50;1945.60
70151;DHT22;57517;43.562;19.540;2024-03-23T04:45:49;154.50;1945.60
70151;DHT22;57517;43.562;19.540;2024-03-23T04:48:15;154.50;1945.60
70151;DHT22;57517;43.562;19.540;2024-03-23T04:50:41;179.20;1920.00
70151;DHT22;57517;43.562;19.540;2024-03-23T04:53:07;179.20;1920.00
70151;DHT22;57517;43.562;19.540;2024-03-23T04:55:33;179.20;1920.00
70151;DHT22;57517;43.562;19.540;2024-03-23T04:57:59;179.30;1894.40
70151;DHT22;57517;43.562;19.540;2024-03-23T05:00:25;179.20;1920.00
70151;DHT22;57517;43.562;19.540;2024-03-23T05:02:51;179.20;1920.00
70151;DHT22;57517;43.562;19.540;2024-03-23T05:05:18;179.30;1920.00
70151;DHT22;57517;43.562;19.540;2024-03-23T05:07:44;179.20;1920.00
70151;DHT22;57517;43.562;19.540;2024-03-23T05:10:10;179.20;1894.40
70151;DHT22;57517;43.562;19.540;2024-03-23T05:12:39;179.20;1894.40
70151;DHT22;57517;43.562;19.540;2024-03-23T05:15:06;179.20;1920.00
70151;DHT22;57517;43.562;19.540;2024-03-23T05:17:33;154.50;1920.00
70151;DHT22;57517;43.562;19.540;2024-03-23T05:19:59;179.20;1894.40
70151;DHT22;57517;43.562;19.540;2024-03-23T05:22:25;154.50;1920.00
70151;DHT22;57517;43.562;19.540;2024-03-23T05:24:53;179.20;1894.40
70151;DHT22;57517;43.562;19.540;2024-03-23T05:27:19;179.30;1894.40
70151;DHT22;57517;43.562;19.540;2024-03-23T05:29:44;179.40;1868.80
70151;DHT22;57517;43.562;19.540;2024-03-23T05:32:10;179.50;1868.80
70151;DHT22;57517;43.562;19.540;2024-03-23T05:34:36;179.60;1843.20
70151;DHT22;57517;43.562;19.540;2024-03-23T05:37:02;179.80;1817.60
70151;DHT22;57517;43.562;19.540;2024-03-23T05:39:28;179.70;1817.60
70151;DHT22;57517;43.562;19.540;2024-03-23T05:41:54;179.50;1868.80
70151;DHT22;57517;43.562;19.540;2024-03-23T05:44:19;179.50;1868.80
70151;DHT22;57517;43.562;19.540;2024-03-23T05:46:45;179.50;1868.80
70151;DHT22;57517;43.562;19.540;2024-03-23T05:49:15;179.80;1868.80
70151;DHT22;57517;43.562;19.540;2024-03-23T05:51:42;230.50;1715.20
70151;DHT22;57517;43.562;19.540;2024-03-23T05:54:07;256.30;1561.60
70151;DHT22;57517;43.562;19.540;2024-03-23T05:56:33;281.60;1484.80
70151;DHT22;57517;43.562;19.540;2024-03-23T05:58:59;282.50;1433.60
70151;DHT22;57517;43.562;19.540;2024-03-23T06:01:24;308.00;1382.40
70151;DHT22;57517;43.562;19.540;2024-03-23T06:03:54;333.30;1331.20
70151;DHT22;57517;43.562;19.540;2024-03-23T06:06:20;358.60;1280.00
70151;DHT22;57517;43.562;19.540;2024-03-23T06:08:46;359.30;1228.80
70151;DHT22;57517;43.562;19.540;2024-03-23T06:11:11;384.60;1203.20
70151;DHT22;57517;43.562;19.540;2024-03-23T06:13:37;409.70;1203.20
70151;DHT22;57517;43.562;19.540;2024-03-23T06:16:03;410.40;1126.40
70151;DHT22;57517;43.562;19.540;2024-03-23T06:18:29;435.90;1075.20
70151;DHT22;57517;43.562;19.540;2024-03-23T06:20:55;460.80;1049.60
70151;DHT22;57517;43.562;19.540;2024-03-23T06:23:21;461.40;1024.00
70151;DHT22;57517;43.562;19.540;2024-03-23T06:25:47;461.50;998.40
70151;DHT22;57517;43.562;19.540;2024-03-23T06:28:13;486.80;972.80
70151;DHT22;57517;43.562;19.540;2024-03-23T06:30:39;487.10;947.20
70151;DHT22;57517;43.562;19.540;2024-03-23T06:33:05;487.20;921.60
70151;DHT22;57517;43.562;19.540;2024-03-23T06:35:34;512.60;896.00
70151;DHT22;57517;43.562;19.540;2024-03-23T06:38:00;512.90;870.40
70151;DHT22;57517;43.562;19.540;2024-03-23T06:40:25;537.90;896.00
70151;DHT22;57517;43.562;19.540;2024-03-23T06:42:51;538.20;870.40
70151;DHT22;57517;43.562;19.540;2024-03-23T06:45:17;538.50;844.80
70151;DHT22;57517;43.562;19.540;2024-03-23T06:47:49;563.50;870.40
70151;DHT22;57517;43.562;19.540;2024-03-23T06:50:15;564.10;844.80
70151;DHT22;57517;43.562;19.540;2024-03-23T06:52:41;564.10;819.20
70151;DHT22;57517;43.562;19.540;2024-03-23T06:55:07;614.60;768.00
70151;DHT22;57517;43.562;19.540;2024-03-23T06:57:33;615.00;742.40
70151;DHT22;57517;43.562;19.540;2024-03-23T06:59:58;640.20;716.80
70151;DHT22;57517;43.562;19.540;2024-03-23T07:02:24;665.70;716.80
70151;DHT22;57517;43.562;19.540;2024-03-23T07:04:50;640.80;716.80
70151;DHT22;57517;43.562;19.540;2024-03-23T07:07:16;691.50;665.60
70151;DHT22;57517;43.562;19.540;2024-03-23T07:09:41;717.00;665.60
70151;DHT22;57517;43.562;19.540;2024-03-23T07:12:08;717.50;640.00
70151;DHT22;57517;43.562;19.540;2024-03-23T07:14:33;742.60;640.00
70151;DHT22;57517;43.562;19.540;2024-03-23T07:16:59;742.60;640.00
70151;DHT22;57517;43.562;19.540;2024-03-23T07:19:25;743.10;614.40
70151;DHT22;57517;43.562;19.540;2024-03-23T07:21:51;768.40;614.40
70151;DHT22;57517;43.562;19.540;2024-03-23T07:24:16;768.90;588.80
70151;DHT22;57517;43.562;19.540;2024-03-23T07:26:42;768.90;614.40
70151;DHT22;57517;43.562;19.540;2024-03-23T07:29:09;768.90;640.00
70151;DHT22;57517;43.562;19.540;2024-03-23T07:31:35;794.50;614.40
70151;DHT22;57517;43.562;19.540;2024-03-23T07:53:35;922.50;486.40
70151;DHT22;57517;43.562;19.540;2024-03-23T07:56:06;947.30;486.40
70151;DHT22;57517;43.562;19.540;2024-03-23T07:58:33;947.90;486.40
70151;DHT22;57517;43.562;19.540;2024-03-23T08:01:10;947.70;460.80
70151;DHT22;57517;43.562;19.540;2024-03-23T08:18:17;1049.60;435.20
70151;DHT22;57517;43.562;19.540;2024-03-23T08:25:35;1050.10;435.20
70151;DHT22;57517;43.562;19.540;2024-03-23T08:32:55;1075.90;409.60
70151;DHT22;57517;43.562;19.540;2024-03-23T09:31:31;921.80;460.80
70151;DHT22;57517;43.562;19.540;2024-03-23T09:48:37;716.80;640.00
70151;DHT22;57517;43.562;19.540;2024-03-23T09:51:03;691.30;691.20
70151;DHT22;57517;43.562;19.540;2024-03-23T09:53:29;666.10;716.80
70151;DHT22;57517;43.562;19.540;2024-03-23T09:55:55;665.70;691.20
70151;DHT22;57517;43.562;19.540;2024-03-23T09:58:23;640.60;691.20
70151;DHT22;57517;43.562;19.540;2024-03-23T10:00:49;640.30;716.80
70151;DHT22;57517;43.562;19.540;2024-03-23T10:03:15;640.00;716.80
70151;DHT22;57517;43.562;19.540;2024-03-23T10:05:41;615.00;716.80
70151;DHT22;57517;43.562;19.540;2024-03-23T10:10:39;614.70;742.40
70151;DHT22;57517;43.562;19.540;2024-03-23T10:13:05;614.70;742.40
70151;DHT22;57517;43.562;19.540;2024-03-23T10:15:34;614.60;768.00
70151;DHT22;57517;43.562;19.540;2024-03-23T10:18:29;614.60;768.00
70151;DHT22;57517;43.562;19.540;2024-03-23T10:21:07;614.60;768.00
70151;DHT22;57517;43.562;19.540;2024-03-23T10:23:41;614.70;742.40
70151;DHT22;57517;43.562;19.540;2024-03-23T10:26:18;614.50;768.00
70151;DHT22;57517;43.562;19.540;2024-03-23T10:28:54;614.40;768.00
70151;DHT22;57517;43.562;19.540;2024-03-23T10:31:21;589.50;793.60
70151;DHT22;57517;43.562;19.540;2024-03-23T10:33:47;589.40;793.60
70151;DHT22;57517;43.562;19.540;2024-03-23T10:36:14;589.30;793.60
70151;DHT22;57517;43.562;19.540;2024-03-23T10:38:44;589.40;793.60
70151;DHT22;57517;43.562;19.540;2024-03-23T10:41:10;589.20;793.60
70151;DHT22;57517;43.562;19.540;2024-03-23T10:43:37;589.10;819.20
70151;DHT22;57517;43.562;19.540;2024-03-23T10:46:03;588.90;819.20
70151;DHT22;57517;43.562;19.540;2024-03-23T10:48:31;588.80;768.00
70151;DHT22;57517;43.562;19.540;2024-03-23T10:50:57;588.80;768.00
70151;DHT22;57517;43.562;19.540;2024-03-23T10:53:26;564.10;768.00
70151;DHT22;57517;43.562;19.540;2024-03-23T10:55:52;588.90;768.00
70151;DHT22;57517;43.562;19.540;2024-03-23T10:58:24;588.90;793.60
70151;DHT22;57517;43.562;19.540;2024-03-23T11:00:52;564.10;819.20
70151;DHT22;57517;43.562;19.540;2024-03-23T11:03:35;564.00;793.60
70151;DHT22;57517;43.562;19.540;2024-03-23T11:06:07;588.80;793.60
70151;DHT22;57517;43.562;19.540;2024-03-23T11:08:37;588.90;793.60
70151;DHT22;57517;43.562;19.540;2024-03-23T11:11:19;589.00;768.00
70151;DHT22;57517;43.562;19.540;2024-03-23T11:13:50;588.80;768.00
70151;DHT22;57517;43.562;19.540;2024-03-23T11:16:26;564.00;768.00
70151;DHT22;57517;43.562;19.540;2024-03-23T11:19:34;563.90;768.00
70151;DHT22;57517;43.562;19.540;2024-03-23T11:22:01;564.00;768.00
70151;DHT22;57517;43.562;19.540;2024-03-23T11:24:27;563.90;768.00
70151;DHT22;57517;43.562;19.540;2024-03-23T11:26:53;563.90;768.00
70151;DHT22;57517;43.562;19.540;2024-03-23T11:29:19;564.00;768.00
70151;DHT22;57517;43.562;19.540;2024-03-23T11:31:50;588.80;768.00
70151;DHT22;57517;43.562;19.540;2024-03-23T11:34:17;588.80;742.40
70151;DHT22;57517;43.562;19.540;2024-03-23T11:36:43;588.80;742.40
70151;DHT22;57517;43.562;19.540;2024-03-23T11:39:15;563.90;768.00
70151;DHT22;57517;43.562;19.540;2024-03-23T11:41:46;563.90;768.00
70151;DHT22;57517;43.562;19.540;2024-03-23T11:44:22;563.90;768.00
70151;DHT22;57517;43.562;19.540;2024-03-23T11:46:49;563.80;768.00
70151;DHT22;57517;43.562;19.540;2024-03-23T11:49:26;563.90;768.00
70151;DHT22;57517;43.562;19.540;2024-03-23T11:51:53;563.90;768.00
70151;DHT22;57517;43.562;19.540;2024-03-23T11:54:23;563.90;742.40
70151;DHT22;57517;43.562;19.540;2024-03-23T11:57:07;563.90;793.60
70151;DHT22;57517;43.562;19.540;2024-03-23T11:59:34;563.60;768.00
70151;DHT22;57517;43.562;19.540;2024-03-23T12:02:05;563.70;793.60
70151;DHT22;57517;43.562;19.540;2024-03-23T12:04:32;563.60;768.00
70151;DHT22;57517;43.562;19.540;2024-03-23T12:10:04;563.90;768.00
70151;DHT22;57517;43.562;19.540;2024-03-23T12:12:31;563.90;768.00
70151;DHT22;57517;43.562;19.540;2024-03-23T12:15:05;563.90;742.40
70151;DHT22;57517;43.562;19.540;2024-03-23T12:17:31;563.90;768.00
70151;DHT22;57517;43.562;19.540;2024-03-23T12:19:57;563.90;742.40
70151;DHT22;57517;43.562;19.540;2024-03-23T12:22:23;563.80;742.40
70151;DHT22;57517;43.562;19.540;2024-03-23T12:24:50;563.80;742.40
70151;DHT22;57517;43.562;19.540;2024-03-23T12:27:16;563.70;768.00
70151;DHT22;57517;43.562;19.540;2024-03-23T12:29:42;563.80;742.40
70151;DHT22;57517;43.562;19.540;2024-03-23T12:32:11;563.80;742.40
70151;DHT22;57517;43.562;19.540;2024-03-23T12:34:37;563.80;768.00
70151;DHT22;57517;43.562;19.540;2024-03-23T12:37:03;563.90;768.00
70151;DHT22;57517;43.562;19.540;2024-03-23T12:39:29;563.80;768.00
70151;DHT22;57517;43.562;19.540;2024-03-23T12:41:55;563.90;793.60
70151;DHT22;57517;43.562;19.540;2024-03-23T12:44:21;563.90;768.00
70151;DHT22;57517;43.562;19.540;2024-03-23T12:46:47;563.90;768.00
70151;DHT22;57517;43.562;19.540;2024-03-23T12:49:13;563.60;742.40
70151;DHT22;57517;43.562;19.540;2024-03-23T12:51:38;563.50;768.00
70151;DHT22;57517;43.562;19.540;2024-03-23T12:54:05;563.50;768.00
70151;DHT22;57517;43.562;19.540;2024-03-23T12:56:30;563.50;742.40
70151;DHT22;57517;43.562;19.540;2024-03-23T12:58:56;563.70;742.40
70151;DHT22;57517;43.562;19.540;2024-03-23T13:01:26;563.90;742.40
70151;DHT22;57517;43.562;19.540;2024-03-23T13:03:52;563.90;742.40
70151;DHT22;57517;43.562;19.540;2024-03-23T13:06:18;563.90;742.40
70151;DHT22;57517;43.562;19.540;2024-03-23T13:08:47;563.90;742.40
70151;DHT22;57517;43.562;19.540;2024-03-23T13:11:15;563.90;742.40
70151;DHT22;57517;43.562;19.540;2024-03-23T13:13:41;563.90;742.40
70151;DHT22;57517;43.562;19.540;2024-03-23T13:16:10;564.00;742.40
70151;DHT22;57517;43.562;19.540;2024-03-23T13:18:35;564.10;742.40
70151;DHT22;57517;43.562;19.540;2024-03-23T13:21:01;564.10;742.40
70151;DHT22;57517;43.562;19.540;2024-03-23T13:23:27;588.80;742.40
70151;DHT22;57517;43.562;19.540;2024-03-23T13:25:54;588.90;716.80
70151;DHT22;57517;43.562;19.540;2024-03-23T13:28:22;588.80;691.20
70151;DHT22;57517;43.562;19.540;2024-03-23T13:30:55;588.90;716.80
70151;DHT22;57517;43.562;19.540;2024-03-23T13:33:21;588.90;691.20
70151;DHT22;57517;43.562;19.540;2024-03-23T13:38:17;564.00;716.80
70151;DHT22;57517;43.562;19.540;2024-03-23T13:40:58;564.00;716.80
70151;DHT22;57517;43.562;19.540;2024-03-23T13:43:25;564.00;716.80
70151;DHT22;57517;43.562;19.540;2024-03-23T13:45:57;563.90;742.40
70151;DHT22;57517;43.562;19.540;2024-03-23T13:48:24;563.90;742.40
70151;DHT22;57517;43.562;19.540;2024-03-23T13:51:00;563.80;742.40
70151;DHT22;57517;43.562;19.540;2024-03-23T13:53:26;563.80;742.40
70151;DHT22;57517;43.562;19.540;2024-03-23T13:55:52;563.80;716.80
70151;DHT22;57517;43.562;19.540;2024-03-23T13:58:18;563.80;716.80
70151;DHT22;57517;43.562;19.540;2024-03-23T14:00:44;563.80;742.40
70151;DHT22;57517;43.562;19.540;2024-03-23T14:03:11;563.80;742.40
70151;DHT22;57517;43.562;19.540;2024-03-23T14:05:37;563.80;742.40
70151;DHT22;57517;43.562;19.540;2024-03-23T14:08:09;563.80;742.40
70151;DHT22;57517;43.562;19.540;2024-03-23T14:10:35;563.80;742.40
70151;DHT22;57517;43.562;19.540;2024-03-23T14:13:04;563.70;742.40
70151;DHT22;57517;43.562;19.540;2024-03-23T14:15:30;563.60;768.00
70151;DHT22;57517;43.562;19.540;2024-03-23T14:17:56;563.70;742.40
70151;DHT22;57517;43.562;19.540;2024-03-23T14:20:23;563.80;742.40
70151;DHT22;57517;43.562;19.540;2024-03-23T14:22:52;563.80;742.40
70151;DHT22;57517;43.562;19.540;2024-03-23T14:25:18;563.90;742.40
70151;DHT22;57517;43.562;19.540;2024-03-23T14:27:45;563.90;742.40
70151;DHT22;57517;43.562;19.540;2024-03-23T14:30:11;563.90;768.00
70151;DHT22;57517;43.562;19.540;2024-03-23T14:32:38;563.70;793.60
70151;DHT22;57517;43.562;19.540;2024-03-23T14:35:04;563.70;768.00
70151;DHT22;57517;43.562;19.540;2024-03-23T14:37:30;563.70;793.60
70151;DHT22;57517;43.562;19.540;2024-03-23T14:39:57;563.60;793.60
70151;DHT22;57517;43.562;19.540;2024-03-23T14:42:23;563.60;793.60
70151;DHT22;57517;43.562;19.540;2024-03-23T14:44:50;563.50;793.60
70151;DHT22;57517;43.562;19.540;2024-03-23T14:47:17;563.60;793.60
70151;DHT22;57517;43.562;19.540;2024-03-23T14:49:46;563.70;793.60
70151;DHT22;57517;43.562;19.540;2024-03-23T14:52:16;563.70;793.60
70151;DHT22;57517;43.562;19.540;2024-03-23T14:54:43;563.70;793.60
70151;DHT22;57517;43.562;19.540;2024-03-23T14:57:09;563.70;793.60
70151;DHT22;57517;43.562;19.540;2024-03-23T14:59:36;563.70;793.60
70151;DHT22;57517;43.562;19.540;2024-03-23T15:02:07;563.40;819.20
70151;DHT22;57517;43.562;19.540;2024-03-23T15:04:33;563.40;819.20
70151;DHT22;57517;43.562;19.540;2024-03-23T15:06:59;563.40;819.20
70151;DHT22;57517;43.562;19.540;2024-03-23T15:09:25;563.40;844.80
70151;DHT22;57517;43.562;19.540;2024-03-23T15:11:51;563.20;819.20
70151;DHT22;57517;43.562;19.540;2024-03-23T15:14:17;563.20;819.20
70151;DHT22;57517;43.562;19.540;2024-03-23T15:16:42;563.20;819.20
70151;DHT22;57517;43.562;19.540;2024-03-23T15:19:09;538.50;793.60
70151;DHT22;57517;43.562;19.540;2024-03-23T15:21:35;538.40;819.20
70151;DHT22;57517;43.562;19.540;2024-03-23T15:24:01;538.40;819.20
70151;DHT22;57517;43.562;19.540;2024-03-23T15:26:26;538.40;819.20
70151;DHT22;57517;43.562;19.540;2024-03-23T15:28:52;538.40;819.20
70151;DHT22;57517;43.562;19.540;2024-03-23T15:31:24;538.40;819.20
70151;DHT22;57517;43.562;19.540;2024-03-23T15:33:51;538.20;844.80
70151;DHT22;57517;43.562;19.540;2024-03-23T15:36:17;538.20;844.80
70151;DHT22;57517;43.562;19.540;2024-03-23T15:38:43;538.10;844.80
70151;DHT22;57517;43.562;19.540;2024-03-23T15:41:10;538.00;844.80
70151;DHT22;57517;43.562;19.540;2024-03-23T15:43:35;537.80;844.80
70151;DHT22;57517;43.562;19.540;2024-03-23T15:46:05;537.90;844.80
70151;DHT22;57517;43.562;19.540;2024-03-23T15:48:32;537.80;844.80
70151;DHT22;57517;43.562;19.540;2024-03-23T15:50:59;537.70;870.40
70151;DHT22;57517;43.562;19.540;2024-03-23T15:53:26;537.80;844.80
70151;DHT22;57517;43.562;19.540;2024-03-23T15:56:02;537.80;870.40
70151;DHT22;57517;43.562;19.540;2024-03-23T15:58:30;537.80;870.40
70151;DHT22;57517;43.562;19.540;2024-03-23T16:01:00;512.90;844.80
70151;DHT22;57517;43.562;19.540;2024-03-23T16:03:27;512.80;844.80
70151;DHT22;57517;43.562;19.540;2024-03-23T16:06:03;512.90;870.40
70151;DHT22;57517;43.562;19.540;2024-03-23T16:08:30;512.80;870.40
70151;DHT22;57517;43.562;19.540;2024-03-23T16:11:04;512.90;844.80
70151;DHT22;57517;43.562;19.540;2024-03-23T16:13:32;512.80;870.40
70151;DHT22;57517;43.562;19.540;2024-03-23T16:15:58;512.80;870.40
70151;DHT22;57517;43.562;19.540;2024-03-23T16:18:25;512.50;870.40
70151;DHT22;57517;43.562;19.540;2024-03-23T16:21:03;512.40;896.00
70151;DHT22;57517;43.562;19.540;2024-03-23T16:23:33;512.40;896.00
70151;DHT22;57517;43.562;19.540;2024-03-23T16:26:00;512.30;896.00
70151;DHT22;57517;43.562;19.540;2024-03-23T16:28:31;512.20;896.00
70151;DHT22;57517;43.562;19.540;2024-03-23T16:31:05;512.10;896.00
70151;DHT22;57517;43.562;19.540;2024-03-23T16:33:34;512.10;921.60
70151;DHT22;57517;43.562;19.540;2024-03-23T16:36:04;512.00;921.60
70151;DHT22;57517;43.562;19.540;2024-03-23T16:38:32;487.20;921.60
70151;DHT22;57517;43.562;19.540;2024-03-23T16:41:00;487.10;947.20
70151;DHT22;57517;43.562;19.540;2024-03-23T16:43:27;487.10;947.20
70151;DHT22;57517;43.562;19.540;2024-03-23T16:46:00;487.00;921.60
70151;DHT22;57517;43.562;19.540;2024-03-23T16:48:28;486.90;947.20
70151;DHT22;57517;43.562;19.540;2024-03-23T16:50:56;486.90;947.20
70151;DHT22;57517;43.562;19.540;2024-03-23T16:53:23;486.90;947.20
70151;DHT22;57517;43.562;19.540;2024-03-23T16:56:04;486.90;947.20
70151;DHT22;57517;43.562;19.540;2024-03-23T16:58:32;486.80;972.80
70151;DHT22;57517;43.562;19.540;2024-03-23T17:01:04;486.80;972.80
70151;DHT22;57517;43.562;19.540;2024-03-23T17:03:33;486.90;972.80
70151;DHT22;57517;43.562;19.540;2024-03-23T17:06:03;486.80;972.80
70151;DHT22;57517;43.562;19.540;2024-03-23T17:08:30;486.80;972.80
70151;DHT22;57517;43.562;19.540;2024-03-23T17:10:59;486.80;972.80
70151;DHT22;57517;43.562;19.540;2024-03-23T17:13:27;486.70;972.80
70151;DHT22;57517;43.562;19.540;2024-03-23T17:15:53;486.80;972.80
70151;DHT22;57517;43.562;19.540;2024-03-23T17:18:18;486.60;998.40
70151;DHT22;57517;43.562;19.540;2024-03-23T17:20:44;486.60;998.40
70151;DHT22;57517;43.562;19.540;2024-03-23T17:23:11;486.60;998.40
70151;DHT22;57517;43.562;19.540;2024-03-23T17:25:38;486.40;998.40
70151;DHT22;57517;43.562;19.540;2024-03-23T17:28:06;461.70;1024.00
70151;DHT22;57517;43.562;19.540;2024-03-23T17:30:32;461.70;1024.00
70151;DHT22;57517;43.562;19.540;2024-03-23T17:32:57;461.70;1024.00
70151;DHT22;57517;43.562;19.540;2024-03-23T17:35:23;461.70;1024.00
70151;DHT22;57517;43.562;19.540;2024-03-23T17:37:49;461.70;1024.00
70151;DHT22;57517;43.562;19.540;2024-03-23T17:40:15;461.60;1049.60